Honolulu, HI

06:11 PM HST del 17 Gennaio 2017 (GMT -1000)
Honolulu Harbor Pier 35 | | Change Station
Avvisi attivi: Small Craft Advisory

Alt. 0 ft 21.32 °N, 157.88 °W | Updated 7 seconds ago

Parzialmente nuvoloso
Parzialmente nuvoloso
76.4 °F
Sembra 78 °F
N
8.0
Vento Variabile Vento da ESE
Gusts 15.0 mph

Oggi
Massima -- | Minima -- °F
--% Possibilità di precip.
Ieri
Massima -- | Minima -- °F
Precip. -- in
Pressione 30.06 in
Visibilità 10.0 miglia
Nuvole Alcuni 2600 ft
Alcuni 4500 ft
Indice di calore 78 °F
Punto di rugiada 65 °F
Umidità 67%
Piovosità 0.00 in
Spessore del manto nevoso Non disponibile.
7:11 AM 6:12 PM
Gobba a levante, 67% visible
METAR PHNL 180353Z 07009KT 10SM FEW026 FEW045 25/16 A3006 RMK AO2 SLP180 T02500156
Pressione 30.06 in
Visibilità 10.0 miglia
Nuvole Alcuni 2600 ft
Alcuni 4500 ft
Indice di calore 78 °F
Punto di rugiada 65 °F
Umidità 67%
Piovosità 0.00 in
Spessore del manto nevoso Non disponibile.
7:11 AM 6:12 PM
Gobba a levante, 67% visible
METAR PHNL 180353Z 07009KT 10SM FEW026 FEW045 25/16 A3006 RMK AO2 SLP180 T02500156

Get Your Daily Forecast Email!

Thanks for signing up!

Be on the lookout for a verification email in your inbox.

You'll start receiving the daily forecast at 8 AM.

×

10-Day Weather Forecast

Almanac

Astronomia

Jan. 17, 2017 Alba Tramonto
Ora attuale
Crepuscolo civile
Crepuscolo nautico
Crepuscolo astronomico
Luna
Estensione della luce visibile
Lunghezza del giorno
Tomorrow will be .
, % of the Moon is Illuminated

Gli estremi di oggi

State Highs State Lows

Community

WunderPhotos

Upload Photos

1,962,540 foto caricate!

WunderBlog® & News

Nearby

Qualità dell'aria

  Qualità dell'aria Indice AQ Inquinante
Not available.

Profondità neve

Stazione Profondità Altitudine

Attività sismica

Città  Distanza Mag. Data & Ora
Minimo Magnitudo Mostrato è 2.5.

Temperature delle acque costiere

Località Temperatura

Stations

Stazioni meteo nelle vicinanze

Ubicazione della stazione Temp. Raffreddamento del vento Punto di rugiada Umidità Vento Precip. Alt. Aggiornato Tipo
                   

Watches & Warnings

Small Craft Advisory
Issued: 15:57 HST Jan. 17, 2017 – National Weather Service

... Small Craft Advisory in effect from 6 am Wednesday to 6 am HST
Thursday...

The National Weather Service in Honolulu has issued a Small Craft
Advisory... which is in effect from 6 am Wednesday to 6 am HST
Thursday.

* Seas... building to 10 to 13 feet on Wednesday and Wednesday
night... mainly in west-northwest swell.

Precautionary/preparedness actions...

A Small Craft Advisory means that wind speeds of 25 to 33 knots
and/or seas 10 feet or greater are expected to produce conditions
hazardous to small craft. Inexperienced mariners... especially
those operating smaller vessels... should avoid navigating in
these conditions.